createdAt,value
2023-05-01T00:04:58.716Z,99161.02
2023-05-01T00:11:10.969Z,99157.28
2023-05-01T00:16:35.180Z,99155.41
2023-05-01T00:23:04.030Z,99155.07
2023-05-01T00:29:26.206Z,99150.63
2023-05-01T00:36:09.743Z,99144.16
2023-05-01T00:43:02.076Z,99145.52
2023-05-01T00:49:02.116Z,99138.54
2023-05-01T00:55:08.103Z,99138.38
2023-05-01T01:01:32.531Z,99132.76
2023-05-01T01:07:33.075Z,99128.83
2023-05-01T01:14:08.546Z,99127.97
2023-05-01T01:21:05.536Z,99117.59
2023-05-01T01:27:14.011Z,99113.81
2023-05-01T01:33:17.097Z,99109.02
2023-05-01T01:39:15.603Z,99111.02
2023-05-01T01:44:42.638Z,99111.52
2023-05-01T01:50:29.773Z,99105.38
2023-05-01T01:56:35.901Z,99100.42
2023-05-01T02:02:59.536Z,99099.73
2023-05-01T02:09:41.446Z,99093.40
2023-05-01T02:16:03.416Z,99093.85
2023-05-01T02:22:17.799Z,99097.19
2023-05-01T02:28:49.313Z,99090.66
2023-05-01T02:34:13.844Z,99091.09
2023-05-01T02:39:41.416Z,99089.38
2023-05-01T02:45:49.342Z,99081.27
2023-05-01T02:52:39.757Z,99078.82
2023-05-01T02:59:04.560Z,99075.27
2023-05-01T03:06:03.604Z,99073.75
2023-05-01T03:12:50.655Z,99073.41
2023-05-01T03:19:46.843Z,99064.23
2023-05-01T03:26:29.754Z,99062.72
2023-05-01T03:32:55.537Z,99051.00
2023-05-01T03:39:46.285Z,99047.27
2023-05-01T03:46:47.357Z,99047.61
2023-05-01T03:53:50.297Z,99052.88
2023-05-01T04:00:53.352Z,99050.42
2023-05-01T04:07:08.764Z,99047.77
2023-05-01T04:13:22.599Z,99044.75
2023-05-01T04:20:25.120Z,99045.48
2023-05-01T04:26:18.832Z,99047.20
2023-05-01T04:31:57.454Z,99048.40
2023-05-01T04:38:06.196Z,99049.06
2023-05-01T04:44:15.047Z,99050.75
2023-05-01T04:50:19.916Z,99051.90
2023-05-01T04:56:23.423Z,99052.83
2023-05-01T05:02:01.189Z,99050.27
2023-05-01T05:08:15.112Z,99046.80
2023-05-01T05:14:42.642Z,99039.48
2023-05-01T05:20:28.474Z,99038.54
2023-05-01T05:26:54.675Z,99035.80
2023-05-01T05:32:34.983Z,99039.33
2023-05-01T05:38:04.971Z,99039.74
2023-05-01T05:43:44.863Z,99046.83
2023-05-01T05:48:49.998Z,99038.23
2023-05-01T05:54:56.964Z,99040.84
2023-05-01T06:01:24.452Z,99042.58
2023-05-01T06:07:52.683Z,99037.05
2023-05-01T06:14:07.215Z,99033.39
2023-05-01T06:19:15.630Z,99035.44
2023-05-01T06:25:28.458Z,99038.74
2023-05-01T06:32:09.550Z,99036.55
2023-05-01T06:38:33.561Z,99034.70
2023-05-01T06:44:58.719Z,99036.77
2023-05-01T06:51:40.916Z,99030.50
2023-05-01T06:58:06.945Z,99024.09
2023-05-01T07:04:38.496Z,99026.09
2023-05-01T07:10:02.909Z,99020.86
2023-05-01T07:15:22.992Z,99017.41
2023-05-01T07:21:28.083Z,99018.31
2023-05-01T07:28:10.083Z,99012.59
2023-05-01T07:34:34.576Z,99011.63
2023-05-01T07:41:03.387Z,99004.82
2023-05-01T07:47:28.224Z,99003.59
2023-05-01T07:54:31.217Z,99004.56
2023-05-01T08:01:29.636Z,99007.02
2023-05-01T08:07:20.993Z,99009.64
2023-05-01T08:12:38.949Z,99011.03
2023-05-01T08:17:50.721Z,99006.09
2023-05-01T08:23:07.334Z,99007.68
2023-05-01T08:29:08.910Z,99003.89
2023-05-01T08:35:30.675Z,98994.99
2023-05-01T08:42:00.553Z,98990.05
2023-05-01T08:48:38.204Z,98991.95
2023-05-01T08:54:59.344Z,98981.09
2023-05-01T09:01:20.547Z,98980.20
2023-05-01T09:06:44.378Z,98977.41
2023-05-01T09:11:57.498Z,98972.64
2023-05-01T09:18:00.239Z,98962.55
2023-05-01T09:24:23.733Z,98956.70
2023-05-01T09:29:51.204Z,98961.16
2023-05-01T09:35:14.320Z,98950.38
2023-05-01T09:40:35.337Z,98944.30
2023-05-01T09:45:39.667Z,98944.09
2023-05-01T09:50:43.799Z,98937.77
2023-05-01T09:56:07.656Z,98935.77
2023-05-01T10:01:09.731Z,98931.99
2023-05-01T10:06:11.737Z,98927.89
2023-05-01T10:11:30.846Z,98933.55
2023-05-01T10:17:22.428Z,98929.15
2023-05-01T10:23:24.029Z,98918.73
2023-05-01T10:29:48.604Z,98911.23
2023-05-01T10:35:14.666Z,98901.52
2023-05-01T10:40:45.289Z,98893.01
2023-05-01T10:45:48.180Z,98894.05
2023-05-01T10:51:11.548Z,98890.36
2023-05-01T10:56:47.436Z,98883.17
2023-05-01T11:01:52.771Z,98869.63
2023-05-01T11:07:17.372Z,98862.52
2023-05-01T11:13:02.560Z,98853.92
2023-05-01T11:18:07.360Z,98843.60
2023-05-01T11:23:16.276Z,98832.80
2023-05-01T11:28:20.156Z,98828.03
2023-05-01T11:33:26.893Z,98820.25
2023-05-01T11:38:55.869Z,98807.52
2023-05-01T11:44:36.929Z,98803.83
2023-05-01T11:49:57.255Z,98804.02
2023-05-01T11:55:10.889Z,98793.15
2023-05-01T12:00:37.338Z,98787.73
2023-05-01T12:05:42.068Z,98776.70
2023-05-01T12:10:49.515Z,98774.23
2023-05-01T12:15:55.679Z,98766.08
2023-05-01T12:20:58.247Z,98753.88
2023-05-01T12:26:00.342Z,98757.14
2023-05-01T12:32:01.765Z,98753.76
2023-05-01T12:37:43.294Z,98748.41
2023-05-01T12:42:54.525Z,98741.23
2023-05-01T12:48:00.031Z,98731.85
2023-05-01T12:53:07.307Z,98727.29
2023-05-01T12:58:57.760Z,98720.95
2023-05-01T13:04:32.844Z,98704.65
2023-05-01T13:09:51.800Z,98707.88
2023-05-01T13:15:21.663Z,98702.27
2023-05-01T13:20:27.535Z,98694.23
2023-05-01T13:25:32.811Z,98686.50
2023-05-01T13:30:37.211Z,98679.27
2023-05-01T13:35:39.237Z,98679.23
2023-05-01T13:41:41.472Z,98673.96
2023-05-01T13:48:03.105Z,98663.05
2023-05-01T13:54:24.424Z,98656.36
2023-05-01T14:00:45.814Z,98655.16
2023-05-01T14:07:06.826Z,98650.74
2023-05-01T14:13:28.136Z,98645.52
2023-05-01T14:20:01.375Z,98633.20
2023-05-01T14:26:25.627Z,98625.66
2023-05-01T14:31:51.996Z,98614.56
2023-05-01T14:36:55.281Z,98612.67
2023-05-01T14:42:11.089Z,98609.09
2023-05-01T14:47:20.806Z,98603.30
2023-05-01T14:52:30.893Z,98596.45
2023-05-01T14:57:42.135Z,98586.47
2023-05-01T15:02:43.875Z,98583.38
2023-05-01T15:08:00.028Z,98579.86
2023-05-01T15:13:20.667Z,98574.35
2023-05-01T15:18:27.500Z,98563.89
2023-05-01T15:23:30.638Z,98561.41
2023-05-01T15:28:34.632Z,98559.50
2023-05-01T15:34:42.655Z,98550.38
2023-05-01T15:41:04.258Z,98557.75
2023-05-01T15:47:34.534Z,98548.80
2023-05-01T15:54:00.385Z,98553.01
2023-05-01T16:00:21.372Z,98552.98
2023-05-01T16:06:46.198Z,98556.35
2023-05-01T16:13:07.409Z,98555.65
2023-05-01T16:19:29.101Z,98552.03
2023-05-01T16:24:50.638Z,98551.49
2023-05-01T16:30:16.649Z,98539.86
2023-05-01T16:35:35.775Z,98541.86
2023-05-01T16:41:23.972Z,98538.67
2023-05-01T16:46:48.109Z,98535.20
2023-05-01T16:52:43.938Z,98533.63
2023-05-01T16:58:28.559Z,98533.30
2023-05-01T17:03:45.263Z,98538.77
2023-05-01T17:08:47.773Z,98541.43
2023-05-01T17:13:52.189Z,98532.73
2023-05-01T17:19:19.250Z,98529.23
2023-05-01T17:24:21.943Z,98529.55
2023-05-01T17:29:33.916Z,98524.95
2023-05-01T17:34:38.895Z,98526.70
2023-05-01T17:39:40.810Z,98530.07
2023-05-01T17:44:44.957Z,98529.94
2023-05-01T17:49:46.806Z,98527.83
2023-05-01T17:55:17.975Z,98521.30
2023-05-01T18:00:22.655Z,98524.10
2023-05-01T18:05:38.962Z,98528.38
2023-05-01T18:10:55.269Z,98531.14
2023-05-01T18:16:40.925Z,98525.65
2023-05-01T18:21:43.232Z,98525.30
2023-05-01T18:27:05.494Z,98530.30
2023-05-01T18:32:19.461Z,98529.45
2023-05-01T18:37:22.660Z,98528.91
2023-05-01T18:42:26.814Z,98531.67
2023-05-01T18:47:34.263Z,98537.18
2023-05-01T18:52:36.666Z,98533.89
2023-05-01T18:57:41.174Z,98534.45
2023-05-01T19:02:53.213Z,98533.44
2023-05-01T19:08:09.081Z,98531.48
2023-05-01T19:13:16.054Z,98532.89
2023-05-01T19:18:50.632Z,98532.48
2023-05-01T19:24:07.624Z,98531.19
2023-05-01T19:29:09.649Z,98535.65
2023-05-01T19:34:17.494Z,98537.90
2023-05-01T19:39:22.646Z,98538.87
2023-05-01T19:45:17.077Z,98535.46
2023-05-01T19:50:36.389Z,98541.58
2023-05-01T19:56:50.890Z,98543.70
2023-05-01T20:03:12.009Z,98542.20
2023-05-01T20:09:33.313Z,98546.30
2023-05-01T20:15:54.376Z,98543.11
2023-05-01T20:22:15.427Z,98543.73
2023-05-01T20:28:36.449Z,98536.61
2023-05-01T20:34:57.628Z,98541.76
2023-05-01T20:41:18.679Z,98544.22
2023-05-01T20:47:39.809Z,98544.29
2023-05-01T20:53:01.125Z,98552.65
2023-05-01T20:58:02.904Z,98559.23
2023-05-01T21:03:04.471Z,98558.57
2023-05-01T21:08:06.202Z,98558.81
2023-05-01T21:13:11.678Z,98564.98
2023-05-01T21:18:14.982Z,98560.87
2023-05-01T21:23:17.017Z,98559.88
2023-05-01T21:28:18.478Z,98566.02
2023-05-01T21:33:19.997Z,98562.92
2023-05-01T21:38:21.432Z,98567.33
2023-05-01T21:43:23.554Z,98571.29
2023-05-01T21:48:32.360Z,98568.89
2023-05-01T21:53:33.805Z,98569.35
2023-05-01T21:58:35.471Z,98566.83
2023-05-01T22:03:40.923Z,98565.48
2023-05-01T22:08:42.452Z,98569.48
2023-05-01T22:14:47.451Z,98570.84
2023-05-01T22:21:08.606Z,98571.09
2023-05-01T22:27:29.818Z,98572.30
2023-05-01T22:33:50.803Z,98569.99
2023-05-01T22:39:12.112Z,98570.77
2023-05-01T22:44:13.739Z,98574.36
2023-05-01T22:49:15.070Z,98575.71
2023-05-01T22:54:16.489Z,98573.59
2023-05-01T22:59:18.468Z,98570.46
2023-05-01T23:04:19.972Z,98571.20
2023-05-01T23:09:22.138Z,98570.96
2023-05-01T23:14:27.150Z,98569.26
2023-05-01T23:19:28.627Z,98575.17
2023-05-01T23:24:37.785Z,98570.27
2023-05-01T23:29:40.213Z,98575.89
2023-05-01T23:34:43.272Z,98572.42
2023-05-01T23:39:45.578Z,98569.09
2023-05-01T23:44:47.910Z,98561.64
2023-05-01T23:49:54.148Z,98557.84
2023-05-01T23:54:55.504Z,98552.77
2023-05-01T23:59:56.888Z,98546.39
